Chandlerville, Illinois
Current Conditions -  °F | °C
As of 6:15 AM on Saturday 20 Dec 2014 (Local Time) from KIJX Reporting Station
Overcast Overcast  
Wind Chill: 33°   Ceiling: 6500
Heat Index: 33°   Visibility: 7mi
Dew Point: 29°   Wind: 0mph
Humidity: 84%   Direction: NA
Pressure: 30.25"   Gusts: NA
Location:  40.05°N, 90.16°W
Report Text: KIJX 201215Z AUTO 00000KT 7SM SCT055 OVC065 01/M02 A3025 RMK AO2 T00071017
Loading
Personal Weather Stations






























Interactive Weather Map New forecast layout! Learn more

10-Day Weather Forecast

Advertisements
Track Severe Weather on mobile